Kasagimaru — JJ3905 — position and weather

sailwx.info

Track history (hours):
 
Tides and Currents Weather Stations Pressure Air Temp Water Temp Dewpoint Dewpoint Depression Visibility Wind Speed Wind Dir Waves Ship Positions

Kasagimaru

Last reported at 2014-Jul-29 22:33 UTC. Time now 2014-Jul-29 23:03 UTC.
Position N 34°33' E 135°24'.

Length 42 m; draft 3.5 m.

Type: Tug. MMSI: 431300268.

Date/timePositionNaut miles runAvg speedWind from/ knotsBaromVisibWave heightAir tempDewpointWater temp
2014-Jul-29 22:33N 34°33' E 135°24'0 0.1
2014-Jul-29 21:33N 34°33' E 135°24'0 0.1
2014-Jul-29 20:33N 34°33' E 135°24'0 0.1
2014-Jul-29 19:33N 34°33' E 135°24'0 0.1
2014-Jul-29 18:33N 34°33' E 135°24'0 0.1
2014-Jul-29 17:33N 34°33' E 135°24'0 0.1
2014-Jul-29 16:30N 34°33' E 135°24'0 0.1
2014-Jul-29 15:32N 34°33' E 135°24'0 0.0
2014-Jul-29 14:33N 34°33' E 135°24'0 0.1
2014-Jul-29 13:31N 34°33' E 135°24'0 0.1
2014-Jul-29 12:33N 34°33' E 135°24'0 0.1
2014-Jul-29 11:31N 34°33' E 135°24'0 0.1
2014-Jul-29 10:33N 34°33' E 135°24'0 0.1
2014-Jul-29 09:33N 34°33' E 135°24'0 0.1
2014-Jul-29 08:33N 34°33' E 135°24'0 0.1
2014-Jul-29 07:33N 34°33' E 135°24'0 0.1
2014-Jul-29 06:31N 34°33' E 135°24'0 0.1
2014-Jul-29 05:30N 34°33' E 135°24'0 0.0
2014-Jul-29 04:30N 34°33' E 135°24'0 0.1
2014-Jul-29 03:30N 34°33' E 135°24'0 0.1
2014-Jul-29 02:33N 34°33' E 135°24'0 0.4
2014-Jul-29 01:33N 34°33' E 135°24'5 5.2
2014-Jul-29 00:33N 34°33' E 135°18'1812.7
2014-Jul-28 23:06N 34°20' E 135°02'712.9
2014-Jul-28 22:33N 34°13' E 134°59'3 2.6
2014-Jul-28 21:33N 34°14' E 135°02'1110.9
2014-Jul-28 20:33N 34°23' E 135°10'1212.1
2014-Jul-28 19:33N 34°31' E 135°21'3 0.3
2014-Jul-28 10:33N 34°32' E 135°24'0 0.1
2014-Jul-28 09:33N 34°32' E 135°24'2 2.5
2014-Jul-28 08:33N 34°33' E 135°27'0 0.0
2014-Jul-28 07:33N 34°33' E 135°27'0 0.0
2014-Jul-28 06:32N 34°33' E 135°27'0 0.0
2014-Jul-28 05:17N 34°33' E 135°27'0 0.0
2014-Jul-28 04:33N 34°33' E 135°27'0 0.0
2014-Jul-28 03:21N 34°33' E 135°27'0 0.0
2014-Jul-28 02:32N 34°33' E 135°27'0 0.0
2014-Jul-28 01:30N 34°33' E 135°27'0 0.0
2014-Jul-28 00:33N 34°33' E 135°27'0 0.0
2014-Jul-27 23:31N 34°33' E 135°27'0 0.0
2014-Jul-27 22:33N 34°33' E 135°27'0 0.0
2014-Jul-27 21:29N 34°33' E 135°27'0 0.0
2014-Jul-27 20:33N 34°33' E 135°27'0 0.0
2014-Jul-27 19:33N 34°33' E 135°27'0 0.0
2014-Jul-27 18:30N 34°33' E 135°27'0 0.0
2014-Jul-27 17:33N 34°33' E 135°27'0 0.0
2014-Jul-27 16:33N 34°33' E 135°27'0 0.0
2014-Jul-27 15:33N 34°33' E 135°27'0 0.0
2014-Jul-27 14:33N 34°33' E 135°27'0 0.0
2014-Jul-27 13:33N 34°33' E 135°27'0 0.0
2014-Jul-27 12:31N 34°33' E 135°27'0 0.0
2014-Jul-27 11:33N 34°33' E 135°27'0 0.0
2014-Jul-27 10:23N 34°33' E 135°27'0 0.0
2014-Jul-27 09:33N 34°33' E 135°27'0 0.0
2014-Jul-27 08:33N 34°33' E 135°27'0 0.0
2014-Jul-27 06:30N 34°33' E 135°27'0 0.0
2014-Jul-27 05:31N 34°33' E 135°27'0 0.0
2014-Jul-27 04:33N 34°33' E 135°27'0 0.0
2014-Jul-27 03:33N 34°33' E 135°27'1 0.5
2014-Jul-27 02:31N 34°33' E 135°26'0 0.3
2014-Jul-27 01:33N 34°33' E 135°26'5 4.7
2014-Jul-27 00:33N 34°33' E 135°20'5 4.8
2014-Jul-26 23:33N 34°33' E 135°26'1 0.7
2014-Jul-26 22:33N 34°33' E 135°27'0 0.0
2014-Jul-26 21:33N 34°33' E 135°27'0 0.0
2014-Jul-26 12:16N 34°33' E 135°27'0 0.0
2014-Jul-26 11:33N 34°33' E 135°27'0 0.0
2014-Jul-26 10:33N 34°33' E 135°27'0 0.0
2014-Jul-26 09:33N 34°33' E 135°27'0 0.0
2014-Jul-26 08:33N 34°33' E 135°27'2 2.3
2014-Jul-26 07:33N 34°32' E 135°24'1 1.1
2014-Jul-26 06:33N 34°31' E 135°24'2 1.2
2014-Jul-26 04:32N 34°33' E 135°25'0 0.4
2014-Jul-26 03:33N 34°33' E 135°26'4 0.2
2014-Jul-25 08:23N 34°37' E 135°23'3 4.2
2014-Jul-25 07:33N 34°39' E 135°26'0 0.0
2014-Jul-25 06:33N 34°39' E 135°26'0 0.0
2014-Jul-25 05:34N 34°39' E 135°26'0 0.0
2014-Jul-25 04:34N 34°39' E 135°26'0 0.0
2014-Jul-25 03:33N 34°39' E 135°26'0 0.0
2014-Jul-25 02:34N 34°39' E 135°26'1 0.5
2014-Jul-25 01:34N 34°39' E 135°25'6 6.0
2014-Jul-25 00:33N 34°33' E 135°24'0 0.2
2014-Jul-24 23:34N 34°33' E 135°24'2 2.1
2014-Jul-24 22:33N 34°33' E 135°27'0 0.0
2014-Jul-24 21:33N 34°33' E 135°27'0 0.0
2014-Jul-24 20:27N 34°33' E 135°27'0 0.0
2014-Jul-24 19:31N 34°33' E 135°27'0 0.0
2014-Jul-24 18:32N 34°33' E 135°27'0 0.0
2014-Jul-24 17:32N 34°33' E 135°27'0 0.0
2014-Jul-24 16:32N 34°33' E 135°27'0 0.0
2014-Jul-24 15:32N 34°33' E 135°27'0 0.0
2014-Jul-24 14:33N 34°33' E 135°27'0 0.0
2014-Jul-24 13:31N 34°33' E 135°27'0 0.0
2014-Jul-24 10:10N 34°33' E 135°27'0 0.0
2014-Jul-24 06:15N 34°33' E 135°27'3 4.5
2014-Jul-24 05:30N 34°31' E 135°24'2 2.0
2014-Jul-24 04:22N 34°33' E 135°25'0 0.6
2014-Jul-24 03:33N 34°33' E 135°25'1 0.7
2014-Jul-24 02:33N 34°33' E 135°24'0 0.4
2014-Jul-24 01:33N 34°33' E 135°24'3 2.8
2014-Jul-24 00:34N 34°33' E 135°20'5 1.6
2014-Jul-23 21:21N 34°33' E 135°27'0 0.0
2014-Jul-23 20:34N 34°33' E 135°27'0 0.0
2014-Jul-23 19:34N 34°33' E 135°27'0 0.0
2014-Jul-23 18:33N 34°33' E 135°27'0 0.0
2014-Jul-23 15:19N 34°33' E 135°27'0 0.0
2014-Jul-23 12:26N 34°33' E 135°27'0 0.0
2014-Jul-23 11:32N 34°33' E 135°27'0 0.0
2014-Jul-23 10:33N 34°33' E 135°27'0 0.0
2014-Jul-23 09:33N 34°33' E 135°27'0 0.0
2014-Jul-23 08:27N 34°33' E 135°27'0 0.0
2014-Jul-23 07:19N 34°33' E 135°27'0 0.0
2014-Jul-23 05:27N 34°33' E 135°27'1 0.7
2014-Jul-23 04:32N 34°33' E 135°26'5 4.5
2014-Jul-23 03:32N 34°38' E 135°28'4 4.5
2014-Jul-23 02:34N 34°38' E 135°23'5 4.6
2014-Jul-23 01:33N 34°38' E 135°28'0 0.1
2014-Jul-23 00:28N 34°38' E 135°29'0 0.0
2014-Jul-22 07:25N 34°38' E 135°29'0 0.0
2014-Jul-22 05:32N 34°38' E 135°29'0 0.0
2014-Jul-22 04:11N 34°38' E 135°29'0 0.0
2014-Jul-22 03:33N 34°38' E 135°29'0 0.0
2014-Jul-22 02:32N 34°38' E 135°29'0 0.0
2014-Jul-22 01:30N 34°38' E 135°29'0 0.0
2014-Jul-22 00:26N 34°38' E 135°29'0 0.0
2014-Jul-21 09:28N 34°38' E 135°29'7 7.6
2014-Jul-21 08:33N 34°36' E 135°20'5 5.0
2014-Jul-21 07:32N 34°33' E 135°26'0 0.3
2014-Jul-21 06:33N 34°33' E 135°26'0 0.1
2014-Jul-21 05:33N 34°33' E 135°26'4 3.8
2014-Jul-21 04:33N 34°33' E 135°21'2 2.2
2014-Jul-21 03:32N 34°32' E 135°24'1 0.9
2014-Jul-21 02:32N 34°31' E 135°24'0 0.0
2014-Jul-21 01:33N 34°31' E 135°24'0 0.1
2014-Jul-21 00:31N 34°31' E 135°24'3 2.6
2014-Jul-20 23:34N 34°33' E 135°26'1 0.7
2014-Jul-20 22:33N 34°33' E 135°27'0 0.0
2014-Jul-20 21:33N 34°33' E 135°27'0 0.0
2014-Jul-20 20:33N 34°33' E 135°27'0 0.0
2014-Jul-20 19:33N 34°33' E 135°27'0 0.0
2014-Jul-20 18:33N 34°33' E 135°27'0 0.0
2014-Jul-20 17:32N 34°33' E 135°27'0 0.0
2014-Jul-20 16:33N 34°33' E 135°27'0 0.0
2014-Jul-20 15:34N 34°33' E 135°27'0 0.0
2014-Jul-20 14:34N 34°33' E 135°27'0 0.0
2014-Jul-20 13:33N 34°33' E 135°27'0 0.0
2014-Jul-20 12:33N 34°33' E 135°27'0 0.0
2014-Jul-20 11:33N 34°33' E 135°27'0 0.0
2014-Jul-20 10:34N 34°33' E 135°27'0 0.0
2014-Jul-20 09:18N 34°33' E 135°27'0 0.0
2014-Jul-20 08:33N 34°33' E 135°27'0 0.0
2014-Jul-20 07:33N 34°33' E 135°27'0 0.2
2014-Jul-20 06:31N 34°33' E 135°27'1 1.0
2014-Jul-20 05:32N 34°33' E 135°25'2 2.4
2014-Jul-20 04:34N 34°34' E 135°23'2 1.8
2014-Jul-20 03:33N 34°36' E 135°24'0 0.0
2014-Jul-20 02:32N 34°36' E 135°24'1 1.1
2014-Jul-20 01:33N 34°37' E 135°25'2 2.0
2014-Jul-20 00:33N 34°37' E 135°22'5 5.1
2014-Jul-19 23:33N 34°33' E 135°27'0 0.0
2014-Jul-19 22:33N 34°33' E 135°27'  
Track history (hours):
 
Tides and Currents Weather Stations Pressure Air Temp Water Temp Dewpoint Dewpoint Depression Visibility Wind Speed Wind Dir Waves Ship Positions

Kasagimaru

Last reported at 2014-Jul-29 22:33 UTC. Time now 2014-Jul-29 23:03 UTC.
Position N 34°33' E 135°24'.

Length 42 m; draft 3.5 m.

Type: Tug. MMSI: 431300268.

Date/timePositionNaut miles runAvg speedWind from/ knotsBaromVisibWave heightAir tempDewpointWater temp
2014-Jul-29 22:33N 34°33' E 135°24'0 0.1
2014-Jul-29 21:33N 34°33' E 135°24'0 0.1
2014-Jul-29 20:33N 34°33' E 135°24'0 0.1
2014-Jul-29 19:33N 34°33' E 135°24'0 0.1
2014-Jul-29 18:33N 34°33' E 135°24'0 0.1
2014-Jul-29 17:33N 34°33' E 135°24'0 0.1
2014-Jul-29 16:30N 34°33' E 135°24'0 0.1
2014-Jul-29 15:32N 34°33' E 135°24'0 0.0
2014-Jul-29 14:33N 34°33' E 135°24'0 0.1
2014-Jul-29 13:31N 34°33' E 135°24'0 0.1
2014-Jul-29 12:33N 34°33' E 135°24'0 0.1
2014-Jul-29 11:31N 34°33' E 135°24'0 0.1
2014-Jul-29 10:33N 34°33' E 135°24'0 0.1
2014-Jul-29 09:33N 34°33' E 135°24'0 0.1
2014-Jul-29 08:33N 34°33' E 135°24'0 0.1
2014-Jul-29 07:33N 34°33' E 135°24'0 0.1
2014-Jul-29 06:31N 34°33' E 135°24'0 0.1
2014-Jul-29 05:30N 34°33' E 135°24'0 0.0
2014-Jul-29 04:30N 34°33' E 135°24'0 0.1
2014-Jul-29 03:30N 34°33' E 135°24'0 0.1
2014-Jul-29 02:33N 34°33' E 135°24'0 0.4
2014-Jul-29 01:33N 34°33' E 135°24'5 5.2
2014-Jul-29 00:33N 34°33' E 135°18'1812.7
2014-Jul-28 23:06N 34°20' E 135°02'712.9
2014-Jul-28 22:33N 34°13' E 134°59'3 2.6
2014-Jul-28 21:33N 34°14' E 135°02'1110.9
2014-Jul-28 20:33N 34°23' E 135°10'1212.1
2014-Jul-28 19:33N 34°31' E 135°21'3 0.3
2014-Jul-28 10:33N 34°32' E 135°24'0 0.1
2014-Jul-28 09:33N 34°32' E 135°24'2 2.5
2014-Jul-28 08:33N 34°33' E 135°27'0 0.0
2014-Jul-28 07:33N 34°33' E 135°27'0 0.0
2014-Jul-28 06:32N 34°33' E 135°27'0 0.0
2014-Jul-28 05:17N 34°33' E 135°27'0 0.0
2014-Jul-28 04:33N 34°33' E 135°27'0 0.0
2014-Jul-28 03:21N 34°33' E 135°27'0 0.0
2014-Jul-28 02:32N 34°33' E 135°27'0 0.0
2014-Jul-28 01:30N 34°33' E 135°27'0 0.0
2014-Jul-28 00:33N 34°33' E 135°27'0 0.0
2014-Jul-27 23:31N 34°33' E 135°27'0 0.0
2014-Jul-27 22:33N 34°33' E 135°27'0 0.0
2014-Jul-27 21:29N 34°33' E 135°27'0 0.0
2014-Jul-27 20:33N 34°33' E 135°27'0 0.0
2014-Jul-27 19:33N 34°33' E 135°27'0 0.0
2014-Jul-27 18:30N 34°33' E 135°27'0 0.0
2014-Jul-27 17:33N 34°33' E 135°27'0 0.0
2014-Jul-27 16:33N 34°33' E 135°27'0 0.0
2014-Jul-27 15:33N 34°33' E 135°27'0 0.0
2014-Jul-27 14:33N 34°33' E 135°27'0 0.0
2014-Jul-27 13:33N 34°33' E 135°27'0 0.0
2014-Jul-27 12:31N 34°33' E 135°27'0 0.0
2014-Jul-27 11:33N 34°33' E 135°27'0 0.0
2014-Jul-27 10:23N 34°33' E 135°27'0 0.0
2014-Jul-27 09:33N 34°33' E 135°27'0 0.0
2014-Jul-27 08:33N 34°33' E 135°27'0 0.0
2014-Jul-27 06:30N 34°33' E 135°27'0 0.0
2014-Jul-27 05:31N 34°33' E 135°27'0 0.0
2014-Jul-27 04:33N 34°33' E 135°27'0 0.0
2014-Jul-27 03:33N 34°33' E 135°27'1 0.5
2014-Jul-27 02:31N 34°33' E 135°26'0 0.3
2014-Jul-27 01:33N 34°33' E 135°26'5 4.7
2014-Jul-27 00:33N 34°33' E 135°20'5 4.8
2014-Jul-26 23:33N 34°33' E 135°26'1 0.7
2014-Jul-26 22:33N 34°33' E 135°27'0 0.0
2014-Jul-26 21:33N 34°33' E 135°27'0 0.0
2014-Jul-26 12:16N 34°33' E 135°27'0 0.0
2014-Jul-26 11:33N 34°33' E 135°27'0 0.0
2014-Jul-26 10:33N 34°33' E 135°27'0 0.0
2014-Jul-26 09:33N 34°33' E 135°27'0 0.0
2014-Jul-26 08:33N 34°33' E 135°27'2 2.3
2014-Jul-26 07:33N 34°32' E 135°24'1 1.1
2014-Jul-26 06:33N 34°31' E 135°24'2 1.2
2014-Jul-26 04:32N 34°33' E 135°25'0 0.4
2014-Jul-26 03:33N 34°33' E 135°26'4 0.2
2014-Jul-25 08:23N 34°37' E 135°23'3 4.2
2014-Jul-25 07:33N 34°39' E 135°26'0 0.0
2014-Jul-25 06:33N 34°39' E 135°26'0 0.0
2014-Jul-25 05:34N 34°39' E 135°26'0 0.0
2014-Jul-25 04:34N 34°39' E 135°26'0 0.0
2014-Jul-25 03:33N 34°39' E 135°26'0 0.0
2014-Jul-25 02:34N 34°39' E 135°26'1 0.5
2014-Jul-25 01:34N 34°39' E 135°25'6 6.0
2014-Jul-25 00:33N 34°33' E 135°24'0 0.2
2014-Jul-24 23:34N 34°33' E 135°24'2 2.1
2014-Jul-24 22:33N 34°33' E 135°27'0 0.0
2014-Jul-24 21:33N 34°33' E 135°27'0 0.0
2014-Jul-24 20:27N 34°33' E 135°27'0 0.0
2014-Jul-24 19:31N 34°33' E 135°27'0 0.0
2014-Jul-24 18:32N 34°33' E 135°27'0 0.0
2014-Jul-24 17:32N 34°33' E 135°27'0 0.0
2014-Jul-24 16:32N 34°33' E 135°27'0 0.0
2014-Jul-24 15:32N 34°33' E 135°27'0 0.0
2014-Jul-24 14:33N 34°33' E 135°27'0 0.0
2014-Jul-24 13:31N 34°33' E 135°27'0 0.0
2014-Jul-24 10:10N 34°33' E 135°27'0 0.0
2014-Jul-24 06:15N 34°33' E 135°27'3 4.5
2014-Jul-24 05:30N 34°31' E 135°24'2 2.0
2014-Jul-24 04:22N 34°33' E 135°25'0 0.6
2014-Jul-24 03:33N 34°33' E 135°25'1 0.7
2014-Jul-24 02:33N 34°33' E 135°24'0 0.4
2014-Jul-24 01:33N 34°33' E 135°24'3 2.8
2014-Jul-24 00:34N 34°33' E 135°20'5 1.6
2014-Jul-23 21:21N 34°33' E 135°27'0 0.0
2014-Jul-23 20:34N 34°33' E 135°27'0 0.0
2014-Jul-23 19:34N 34°33' E 135°27'0 0.0
2014-Jul-23 18:33N 34°33' E 135°27'0 0.0
2014-Jul-23 15:19N 34°33' E 135°27'0 0.0
2014-Jul-23 12:26N 34°33' E 135°27'0 0.0
2014-Jul-23 11:32N 34°33' E 135°27'0 0.0
2014-Jul-23 10:33N 34°33' E 135°27'0 0.0
2014-Jul-23 09:33N 34°33' E 135°27'0 0.0
2014-Jul-23 08:27N 34°33' E 135°27'0 0.0
2014-Jul-23 07:19N 34°33' E 135°27'0 0.0
2014-Jul-23 05:27N 34°33' E 135°27'1 0.7
2014-Jul-23 04:32N 34°33' E 135°26'5 4.5
2014-Jul-23 03:32N 34°38' E 135°28'4 4.5
2014-Jul-23 02:34N 34°38' E 135°23'5 4.6
2014-Jul-23 01:33N 34°38' E 135°28'0 0.1
2014-Jul-23 00:28N 34°38' E 135°29'0 0.0
2014-Jul-22 07:25N 34°38' E 135°29'0 0.0
2014-Jul-22 05:32N 34°38' E 135°29'0 0.0
2014-Jul-22 04:11N 34°38' E 135°29'0 0.0
2014-Jul-22 03:33N 34°38' E 135°29'0 0.0
2014-Jul-22 02:32N 34°38' E 135°29'0 0.0
2014-Jul-22 01:30N 34°38' E 135°29'0 0.0
2014-Jul-22 00:26N 34°38' E 135°29'0 0.0
2014-Jul-21 09:28N 34°38' E 135°29'7 7.6
2014-Jul-21 08:33N 34°36' E 135°20'5 5.0
2014-Jul-21 07:32N 34°33' E 135°26'0 0.3
2014-Jul-21 06:33N 34°33' E 135°26'0 0.1
2014-Jul-21 05:33N 34°33' E 135°26'4 3.8
2014-Jul-21 04:33N 34°33' E 135°21'2 2.2
2014-Jul-21 03:32N 34°32' E 135°24'1 0.9
2014-Jul-21 02:32N 34°31' E 135°24'0 0.0
2014-Jul-21 01:33N 34°31' E 135°24'0 0.1
2014-Jul-21 00:31N 34°31' E 135°24'3 2.6
2014-Jul-20 23:34N 34°33' E 135°26'1 0.7
2014-Jul-20 22:33N 34°33' E 135°27'0 0.0
2014-Jul-20 21:33N 34°33' E 135°27'0 0.0
2014-Jul-20 20:33N 34°33' E 135°27'0 0.0
2014-Jul-20 19:33N 34°33' E 135°27'0 0.0
2014-Jul-20 18:33N 34°33' E 135°27'0 0.0
2014-Jul-20 17:32N 34°33' E 135°27'0 0.0
2014-Jul-20 16:33N 34°33' E 135°27'0 0.0
2014-Jul-20 15:34N 34°33' E 135°27'0 0.0
2014-Jul-20 14:34N 34°33' E 135°27'0 0.0
2014-Jul-20 13:33N 34°33' E 135°27'0 0.0
2014-Jul-20 12:33N 34°33' E 135°27'0 0.0
2014-Jul-20 11:33N 34°33' E 135°27'0 0.0
2014-Jul-20 10:34N 34°33' E 135°27'0 0.0
2014-Jul-20 09:18N 34°33' E 135°27'0 0.0
2014-Jul-20 08:33N 34°33' E 135°27'0 0.0
2014-Jul-20 07:33N 34°33' E 135°27'0 0.2
2014-Jul-20 06:31N 34°33' E 135°27'1 1.0
2014-Jul-20 05:32N 34°33' E 135°25'2 2.4
2014-Jul-20 04:34N 34°34' E 135°23'2 1.8
2014-Jul-20 03:33N 34°36' E 135°24'0 0.0
2014-Jul-20 02:32N 34°36' E 135°24'1 1.1
2014-Jul-20 01:33N 34°37' E 135°25'2 2.0
2014-Jul-20 00:33N 34°37' E 135°22'5 5.1
2014-Jul-19 23:33N 34°33' E 135°27'0 0.0
2014-Jul-19 22:33N 34°33' E 135°27'  

Dump ship's entire track history